Time;durP1;ratioP1;P1;durP2;ratioP2;P2;SDS_P1;SDS_P2;PMS_P1;PMS_P2;Temp;Humidity;BMP_temperature;BMP_pressure;BME280_temperature;BME280_humidity;BME280_pressure;Samples;Min_cycle;Max_cycle;Signal;HPM_P1;HPM_P2
2021/06/22 00:01:04;;;;;;;7.67;5.40;;;13.30;99.90;;;;;;5028723;28;20222;-84
2021/06/22 00:03:29;;;;;;;7.03;5.10;;;13.30;99.90;;;;;;5031171;28;20253;-83
2021/06/22 00:05:56;;;;;;;9.67;5.27;;;13.30;99.90;;;;;;5030940;28;20313;-84
2021/06/22 00:08:22;;;;;;;9.03;5.53;;;13.30;99.90;;;;;;5029728;28;20242;-84
2021/06/22 00:10:48;;;;;;;10.90;5.87;;;13.30;99.90;;;;;;5031978;28;20240;-83
2021/06/22 00:13:14;;;;;;;5.53;4.60;;;13.30;99.90;;;;;;5031281;28;20234;-84
2021/06/22 00:15:40;;;;;;;8.83;4.83;;;13.30;99.90;;;;;;5014331;28;20229;-84
2021/06/22 00:18:06;;;;;;;7.33;5.20;;;13.30;99.90;;;;;;5028034;28;20240;-85
2021/06/22 00:20:31;;;;;;;20.03;5.30;;;13.30;99.90;;;;;;5013677;28;20214;-84
2021/06/22 00:22:58;;;;;;;6.67;4.97;;;13.30;99.90;;;;;;5013325;28;20194;-84
2021/06/22 00:25:25;;;;;;;10.97;5.83;;;13.30;99.90;;;;;;5013900;28;20194;-82
2021/06/22 00:27:52;;;;;;;9.23;5.60;;;13.30;99.90;;;;;;5029977;28;20217;-82
2021/06/22 00:30:19;;;;;;;11.47;5.03;;;13.30;99.90;;;;;;5034633;28;20212;-82
2021/06/22 00:32:45;;;;;;;4.90;4.17;;;13.20;99.90;;;;;;5014121;28;20218;-85
2021/06/22 00:35:12;;;;;;;12.30;6.43;;;13.20;99.90;;;;;;5017386;28;20193;-82
2021/06/22 00:37:42;;;;;;;8.33;5.10;;;13.30;99.90;;;;;;5049585;28;21358;-84
2021/06/22 00:40:09;;;;;;;7.07;4.47;;;13.20;99.90;;;;;;5016262;28;20328;-82
2021/06/22 00:42:35;;;;;;;11.60;5.73;;;13.20;99.90;;;;;;5032457;28;20225;-83
2021/06/22 00:45:02;;;;;;;7.70;4.77;;;13.20;99.90;;;;;;5034395;28;20218;-83
2021/06/22 00:47:29;;;;;;;10.80;5.30;;;13.20;99.90;;;;;;5033053;28;20253;-84
2021/06/22 00:49:56;;;;;;;8.57;6.00;;;13.20;99.90;;;;;;5017353;28;20191;-82
2021/06/22 00:52:23;;;;;;;24.03;7.47;;;13.10;99.90;;;;;;5034013;28;20214;-85
2021/06/22 00:54:49;;;;;;;17.57;5.63;;;13.00;99.90;;;;;;5034719;28;20269;-82
2021/06/22 00:57:16;;;;;;;7.77;4.83;;;12.90;99.90;;;;;;5034406;28;20238;-82
2021/06/22 00:59:42;;;;;;;7.80;5.80;;;12.80;99.90;;;;;;5050526;28;20217;-82
2021/06/22 01:02:08;;;;;;;7.43;4.53;;;12.70;99.90;;;;;;5034789;28;20565;-83
2021/06/22 01:04:35;;;;;;;8.67;5.43;;;12.70;99.90;;;;;;5033766;28;20306;-82
2021/06/22 01:07:02;;;;;;;5.87;5.17;;;12.60;99.90;;;;;;5031268;28;20226;-83
2021/06/22 01:09:28;;;;;;;5.53;4.20;;;12.50;99.90;;;;;;5030999;28;20225;-84
2021/06/22 01:11:59;;;;;;;8.53;4.57;;;12.50;99.90;;;;;;5030171;28;20591;-86
2021/06/22 01:14:26;;;;;;;11.03;4.53;;;12.50;99.90;;;;;;5030007;28;20720;-82
2021/06/22 01:16:53;;;;;;;6.37;4.40;;;12.50;99.90;;;;;;5016056;28;20754;-84
2021/06/22 01:19:19;;;;;;;11.87;4.37;;;12.60;99.90;;;;;;5016849;28;20412;-84
2021/06/22 01:21:45;;;;;;;16.80;5.27;;;12.60;99.90;;;;;;5033875;28;20233;-84
2021/06/22 01:24:17;;;;;;;8.73;4.80;;;12.60;99.90;;;;;;5016648;28;20301;-83
2021/06/22 01:26:48;;;;;;;10.77;5.10;;;12.60;99.90;;;;;;5051512;28;20222;-83
2021/06/22 01:29:14;;;;;;;7.70;4.47;;;12.60;99.90;;;;;;5035790;28;20189;-83
2021/06/22 01:31:41;;;;;;;7.17;5.00;;;12.60;99.90;;;;;;5033508;28;20221;-83
2021/06/22 01:34:07;;;;;;;9.63;4.20;;;12.60;99.90;;;;;;5031834;28;20225;-85
2021/06/22 01:36:34;;;;;;;11.37;5.13;;;12.70;99.90;;;;;;5014987;28;20313;-85
2021/06/22 01:39:01;;;;;;;8.77;4.17;;;12.70;99.90;;;;;;5016903;28;20226;-85
2021/06/22 01:41:27;;;;;;;8.67;4.53;;;12.70;99.90;;;;;;5015102;28;20225;-83
2021/06/22 01:43:52;;;;;;;10.60;6.33;;;12.70;99.90;;;;;;4998496;28;20628;-82
2021/06/22 01:46:19;;;;;;;8.67;4.60;;;12.70;99.90;;;;;;4999005;28;20214;-83
2021/06/22 01:48:45;;;;;;;11.47;4.83;;;12.70;99.90;;;;;;5031419;28;20214;-83
2021/06/22 01:51:11;;;;;;;8.50;4.73;;;12.70;99.90;;;;;;5032287;28;21010;-82
2021/06/22 01:53:37;;;;;;;14.07;5.13;;;12.60;99.90;;;;;;5031600;28;20218;-83
2021/06/22 01:56:03;;;;;;;4.87;3.93;;;12.50;99.90;;;;;;5008283;28;20637;-83
2021/06/22 01:58:29;;;;;;;9.27;5.13;;;12.40;99.90;;;;;;5033036;28;20600;-83
2021/06/22 02:00:58;;;;;;;6.77;5.10;;;12.30;99.90;;;;;;5015932;28;20255;-83
2021/06/22 02:03:28;;;;;;;15.37;5.10;;;12.30;99.90;;;;;;5031566;28;20241;-83
2021/06/22 02:05:54;;;;;;;8.23;4.77;;;12.20;99.90;;;;;;5032343;28;20224;-85
2021/06/22 02:08:20;;;;;;;9.43;5.77;;;12.10;99.90;;;;;;5031303;28;20328;-82
2021/06/22 02:10:47;;;;;;;6.40;4.63;;;12.00;99.90;;;;;;5016000;28;20292;-84
2021/06/22 02:13:14;;;;;;;11.53;5.13;;;12.00;99.90;;;;;;5033277;28;20221;-83
2021/06/22 02:15:41;;;;;;;7.30;5.33;;;11.90;99.90;;;;;;5031336;28;20256;-83
2021/06/22 02:18:07;;;;;;;10.77;4.30;;;11.90;99.90;;;;;;5014741;28;20230;-84
2021/06/22 02:20:34;;;;;;;7.63;5.27;;;11.80;99.90;;;;;;5032401;28;20221;-83
2021/06/22 02:23:00;;;;;;;7.90;6.07;;;11.80;99.90;;;;;;5046622;28;20186;-84
2021/06/22 02:25:26;;;;;;;7.27;5.37;;;11.80;99.90;;;;;;5032229;28;20665;-83
2021/06/22 02:28:02;;;;;;;8.50;4.87;;;11.70;99.90;;;;;;4999161;28;20233;-83
2021/06/22 02:30:28;;;;;;;8.57;4.57;;;11.70;99.90;;;;;;5032595;28;20230;-85
2021/06/22 02:32:54;;;;;;;10.07;6.40;;;11.60;99.90;;;;;;5031178;28;20253;-84
2021/06/22 02:35:19;;;;;;;12.77;5.03;;;11.50;99.90;;;;;;5032186;28;20616;-84
2021/06/22 02:37:50;;;;;;;6.37;4.67;;;11.50;99.90;;;;;;4996280;28;20253;-84
2021/06/22 02:40:16;;;;;;;6.67;4.40;;;11.50;99.90;;;;;;5032652;28;21091;-83
2021/06/22 02:42:42;;;;;;;8.70;4.97;;;11.50;99.90;;;;;;5031810;28;20214;-83
2021/06/22 02:45:08;;;;;;;8.47;6.23;;;11.50;99.90;;;;;;5014692;28;20228;-84
2021/06/22 02:47:34;;;;;;;8.33;5.57;;;11.50;99.90;;;;;;5013488;28;20215;-84
2021/06/22 02:50:00;;;;;;;11.57;5.27;;;11.50;99.90;;;;;;5015120;28;20657;-84
2021/06/22 02:52:25;;;;;;;8.67;5.63;;;11.50;99.90;;;;;;5029843;28;20205;-84
2021/06/22 02:54:52;;;;;;;6.20;4.80;;;11.50;99.90;;;;;;5029071;28;20210;-84
2021/06/22 02:57:18;;;;;;;9.57;6.33;;;11.50;99.90;;;;;;5031372;28;20284;-84
2021/06/22 02:59:43;;;;;;;9.77;4.67;;;11.50;99.90;;;;;;5030497;28;20880;-83
2021/06/22 03:02:09;;;;;;;7.50;4.70;;;11.50;99.90;;;;;;5032954;28;20673;-84
2021/06/22 03:04:36;;;;;;;16.17;4.87;;;11.60;99.90;;;;;;5031069;28;20220;-84
2021/06/22 03:07:02;;;;;;;6.97;4.97;;;11.60;99.90;;;;;;5032659;28;20270;-84
2021/06/22 03:09:27;;;;;;;6.53;4.97;;;11.60;99.90;;;;;;5029008;28;20209;-85
2021/06/22 03:11:54;;;;;;;8.83;4.43;;;11.60;99.90;;;;;;5032081;28;20222;-84
2021/06/22 03:14:21;;;;;;;7.47;4.50;;;11.50;99.90;;;;;;5030532;28;20221;-84
2021/06/22 03:16:47;;;;;;;8.47;4.47;;;11.60;99.90;;;;;;5031759;28;20206;-83
2021/06/22 03:19:13;;;;;;;2.60;2.40;;;11.50;99.90;;;;;;5014309;28;20349;-82
2021/06/22 03:21:44;;;;;;;8.10;3.83;;;11.50;99.90;;;;;;5032372;28;20245;-83
2021/06/22 03:24:16;;;;;;;10.80;5.60;;;11.50;99.90;;;;;;5028800;28;20229;-82
2021/06/22 03:26:42;;;;;;;6.40;3.77;;;11.60;99.90;;;;;;5032031;28;20689;-85
2021/06/22 03:29:08;;;;;;;12.97;4.37;;;11.60;99.90;;;;;;5030148;28;20206;-83
2021/06/22 03:31:35;;;;;;;5.97;4.73;;;11.70;99.90;;;;;;5014406;28;20190;-83
2021/06/22 03:34:01;;;;;;;7.37;4.03;;;11.60;99.90;;;;;;5032105;28;20222;-83
2021/06/22 03:36:27;;;;;;;6.37;3.80;;;11.60;99.90;;;;;;5030353;28;21360;-85
2021/06/22 03:38:53;;;;;;;4.87;3.00;;;11.70;99.90;;;;;;5031955;28;20356;-84
2021/06/22 03:41:19;;;;;;;6.50;4.03;;;11.70;99.90;;;;;;5027282;28;20585;-85
2021/06/22 03:43:45;;;;;;;4.47;3.30;;;11.70;99.90;;;;;;5010691;28;20194;-85
2021/06/22 03:46:11;;;;;;;5.63;4.03;;;11.80;99.90;;;;;;5029666;28;20217;-85
2021/06/22 03:48:37;;;;;;;6.93;4.00;;;11.70;99.90;;;;;;5015970;28;20229;-85
2021/06/22 03:51:03;;;;;;;3.23;2.90;;;11.70;99.90;;;;;;5029262;28;20993;-85
2021/06/22 03:53:29;;;;;;;3.53;3.20;;;11.80;99.90;;;;;;5030999;28;20241;-84
2021/06/22 03:55:55;;;;;;;4.03;3.13;;;11.90;99.90;;;;;;5031379;28;20339;-85
2021/06/22 03:58:21;;;;;;;7.33;4.23;;;12.00;99.90;;;;;;5014160;28;20241;-83
2021/06/22 04:00:46;;;;;;;4.60;2.30;;;12.10;99.90;;;;;;5013207;28;20554;-84
2021/06/22 04:03:14;;;;;;;10.90;3.40;;;12.20;99.90;;;;;;5034429;28;21014;-84
2021/06/22 04:05:40;;;;;;;4.53;2.47;;;12.20;99.90;;;;;;5036479;28;20701;-84
2021/06/22 04:08:06;;;;;;;2.73;1.90;;;12.30;99.90;;;;;;5033518;28;20198;-84
2021/06/22 04:10:31;;;;;;;1.80;1.70;;;12.30;99.90;;;;;;5017375;28;20183;-84
2021/06/22 04:12:58;;;;;;;3.03;2.10;;;12.30;99.90;;;;;;5017457;28;20625;-84
2021/06/22 04:15:24;;;;;;;3.83;2.37;;;12.40;99.90;;;;;;5031798;28;20217;-84
2021/06/22 04:17:50;;;;;;;6.30;2.80;;;12.40;99.90;;;;;;5033706;28;20230;-84
2021/06/22 04:20:16;;;;;;;4.07;2.43;;;12.60;99.90;;;;;;5019294;28;20225;-84
2021/06/22 04:22:42;;;;;;;3.33;2.23;;;12.60;99.90;;;;;;5034126;28;20188;-84
2021/06/22 04:25:08;;;;;;;3.50;3.17;;;12.70;99.90;;;;;;5018225;28;20213;-84
2021/06/22 04:27:35;;;;;;;8.50;4.13;;;12.80;99.90;;;;;;5016933;28;20222;-84
2021/06/22 04:30:02;;;;;;;10.10;1.83;;;12.90;99.90;;;;;;5017848;28;20232;-82
2021/06/22 04:32:28;;;;;;;10.57;3.03;;;12.90;99.90;;;;;;5019494;28;21184;-82
2021/06/22 04:34:54;;;;;;;3.93;2.37;;;13.00;99.90;;;;;;5018586;28;20195;-82
2021/06/22 04:37:20;;;;;;;3.87;2.67;;;13.00;99.90;;;;;;5010798;28;20226;-85
2021/06/22 04:39:45;;;;;;;5.17;3.10;;;13.10;99.90;;;;;;5016167;28;20242;-84
2021/06/22 04:42:11;;;;;;;6.07;2.43;;;13.10;99.90;;;;;;5019188;28;20225;-84
2021/06/22 04:44:37;;;;;;;2.30;2.07;;;13.20;99.90;;;;;;5019496;28;20214;-87
2021/06/22 04:47:03;;;;;;;4.33;3.17;;;13.30;99.90;;;;;;5035307;28;20194;-84
2021/06/22 04:49:28;;;;;;;7.97;2.60;;;13.30;99.90;;;;;;5035537;28;20379;-84
2021/06/22 04:51:54;;;;;;;2.00;1.83;;;13.40;99.90;;;;;;5034119;28;20750;-86
2021/06/22 04:54:22;;;;;;;5.93;3.20;;;13.40;99.90;;;;;;5015312;28;20218;-84
2021/06/22 04:56:48;;;;;;;7.13;2.73;;;13.60;99.90;;;;;;5032670;28;20346;-85
2021/06/22 04:59:14;;;;;;;4.77;2.73;;;13.70;99.90;;;;;;5032686;28;20200;-85
2021/06/22 05:01:39;;;;;;;2.37;1.80;;;13.80;99.90;;;;;;5015793;28;20217;-83
2021/06/22 05:04:06;;;;;;;4.27;1.90;;;13.80;99.90;;;;;;5012756;28;20218;-85
2021/06/22 05:06:32;;;;;;;4.37;3.17;;;13.90;99.90;;;;;;5034675;28;20229;-85
2021/06/22 05:08:58;;;;;;;4.10;2.40;;;14.00;99.90;;;;;;5005935;28;20214;-86
2021/06/22 05:11:23;;;;;;;2.53;1.97;;;14.30;99.90;;;;;;5034006;28;20296;-86
2021/06/22 05:13:51;;;;;;;7.97;2.90;;;14.30;99.90;;;;;;5019259;28;20206;-85
2021/06/22 05:16:17;;;;;;;4.53;3.10;;;14.40;99.90;;;;;;5016550;28;20214;-87
2021/06/22 05:18:44;;;;;;;2.00;1.50;;;15.00;99.90;;;;;;5030053;28;20230;-82
2021/06/22 05:21:11;;;;;;;2.57;1.63;;;15.20;99.90;;;;;;5032528;28;20312;-84
2021/06/22 05:23:37;;;;;;;3.80;2.73;;;15.00;99.90;;;;;;5035328;28;21064;-85
2021/06/22 05:26:03;;;;;;;3.30;2.00;;;15.00;99.90;;;;;;5033860;28;20182;-84
2021/06/22 05:28:28;;;;;;;4.87;2.20;;;15.40;99.90;;;;;;5030983;28;20225;-84
2021/06/22 05:30:55;;;;;;;3.70;2.50;;;16.30;99.90;;;;;;5015825;28;20241;-85
2021/06/22 05:33:21;;;;;;;3.23;1.80;;;18.60;99.90;;;;;;5016224;28;20700;-84
2021/06/22 05:35:46;;;;;;;5.50;2.53;;;21.10;99.90;;;;;;5032506;28;20219;-83
2021/06/22 05:38:12;;;;;;;2.13;1.90;;;23.70;99.90;;;;;;5017875;28;20272;-83
2021/06/22 05:40:38;;;;;;;3.33;2.30;;;26.20;99.90;;;;;;5016511;28;20194;-83
2021/06/22 05:43:04;;;;;;;4.80;2.00;;;25.40;99.90;;;;;;5030909;28;20272;-80
2021/06/22 05:45:30;;;;;;;4.77;2.67;;;22.60;99.90;;;;;;5033515;28;20210;-83
2021/06/22 05:47:56;;;;;;;5.30;1.87;;;20.90;99.90;;;;;;5031186;28;20225;-83
2021/06/22 05:50:22;;;;;;;4.60;1.87;;;19.10;99.90;;;;;;5016155;28;20615;-84
2021/06/22 05:52:49;;;;;;;3.07;2.73;;;17.80;99.90;;;;;;5031875;28;20345;-83
2021/06/22 05:55:20;;;;;;;6.87;2.90;;;16.90;99.90;;;;;;5031806;28;20226;-83
2021/06/22 05:57:52;;;;;;;9.70;2.87;;;16.70;99.90;;;;;;5032302;28;20773;-84
2021/06/22 06:00:21;;;;;;;6.47;2.30;;;16.80;99.90;;;;;;5032988;28;20221;-85
2021/06/22 06:02:47;;;;;;;3.30;2.17;;;19.30;99.90;;;;;;5032412;28;20591;-87
2021/06/22 06:05:13;;;;;;;4.47;2.23;;;21.10;99.90;;;;;;5032406;28;20182;-84
2021/06/22 06:07:39;;;;;;;2.93;2.27;;;21.80;99.90;;;;;;5015537;28;20909;-84
2021/06/22 06:10:07;;;;;;;4.13;1.90;;;20.50;99.90;;;;;;5031658;28;20222;-87
2021/06/22 06:12:33;;;;;;;7.33;3.87;;;17.90;99.90;;;;;;5023718;28;20222;-84
2021/06/22 06:14:58;;;;;;;2.97;2.63;;;17.10;99.90;;;;;;5013015;28;20245;-84
2021/06/22 06:17:24;;;;;;;2.63;2.10;;;16.90;99.90;;;;;;5031448;28;21185;-85
2021/06/22 06:19:51;;;;;;;3.40;1.57;;;16.70;99.90;;;;;;5000551;28;20536;-84
2021/06/22 06:22:18;;;;;;;6.80;2.37;;;16.50;99.90;;;;;;5014982;28;20689;-86
2021/06/22 06:24:45;;;;;;;4.97;2.10;;;16.40;99.90;;;;;;5028660;28;20229;-84
2021/06/22 06:27:38;;;;;;;2.97;1.93;;;16.90;99.90;;;;;;5016474;28;20317;-82
2021/06/22 06:30:08;;;;;;;4.67;2.30;;;17.30;99.90;;;;;;5035500;28;20760;-84
2021/06/22 06:32:34;;;;;;;4.83;2.33;;;17.00;99.90;;;;;;5033145;28;20218;-86
2021/06/22 06:35:00;;;;;;;5.30;2.03;;;17.00;99.90;;;;;;5032317;28;20240;-85
2021/06/22 06:37:26;;;;;;;5.37;2.03;;;16.40;99.90;;;;;;5000393;28;20715;-85
2021/06/22 06:39:52;;;;;;;7.50;2.20;;;16.10;99.90;;;;;;5000744;28;20221;-87
2021/06/22 06:42:17;;;;;;;11.27;2.07;;;15.80;99.90;;;;;;5014377;28;20274;-85
2021/06/22 06:44:43;;;;;;;3.47;2.43;;;15.70;99.90;;;;;;5029473;28;20220;-89
2021/06/22 06:47:09;;;;;;;4.63;2.37;;;15.70;99.90;;;;;;5012340;28;20271;-85
2021/06/22 06:49:38;;;;;;;3.87;1.80;;;15.60;99.90;;;;;;5010797;28;21136;-85
2021/06/22 06:52:05;;;;;;;3.63;1.83;;;15.80;99.90;;;;;;5016197;28;20229;-85
2021/06/22 06:54:31;;;;;;;5.57;2.30;;;15.90;99.90;;;;;;5047382;28;20639;-84
2021/06/22 06:56:57;;;;;;;3.83;1.53;;;15.80;99.90;;;;;;5013241;28;20230;-84
2021/06/22 06:59:23;;;;;;;3.33;1.40;;;15.90;99.90;;;;;;5014219;28;20230;-85
2021/06/22 07:01:49;;;;;;;3.73;1.57;;;16.00;99.90;;;;;;5032161;28;21277;-87
2021/06/22 07:04:15;;;;;;;5.43;2.57;;;15.90;99.90;;;;;;5016185;28;20853;-84
2021/06/22 07:06:41;;;;;;;2.93;2.03;;;16.10;99.90;;;;;;5013901;28;20673;-85
2021/06/22 07:09:07;;;;;;;6.17;2.07;;;16.00;99.90;;;;;;5015894;28;20333;-84
2021/06/22 07:11:33;;;;;;;1.60;1.50;;;15.80;99.90;;;;;;5029029;28;20218;-86
2021/06/22 07:13:59;;;;;;;2.73;1.30;;;15.60;99.90;;;;;;5014040;28;20220;-84
2021/06/22 07:16:25;;;;;;;4.90;1.87;;;15.50;99.90;;;;;;5033051;28;20191;-86
2021/06/22 07:18:51;;;;;;;5.53;2.57;;;15.50;99.90;;;;;;5033233;28;20230;-85
2021/06/22 07:21:18;;;;;;;1.80;1.60;;;15.50;99.90;;;;;;5031163;28;20323;-83
2021/06/22 07:23:44;;;;;;;12.10;2.47;;;15.70;99.90;;;;;;5032004;28;20239;-85
2021/06/22 07:26:10;;;;;;;4.73;2.00;;;15.70;99.90;;;;;;5031201;28;20209;-86
2021/06/22 07:28:36;;;;;;;10.23;2.83;;;15.90;99.90;;;;;;5030581;28;20214;-83
2021/06/22 07:31:07;;;;;;;3.37;2.30;;;16.30;99.90;;;;;;5029916;28;20695;-85
2021/06/22 07:33:34;;;;;;;7.10;3.20;;;16.60;99.90;;;;;;5031551;28;20354;-84
2021/06/22 07:35:59;;;;;;;5.17;1.93;;;17.00;99.90;;;;;;5033795;28;20226;-86
2021/06/22 07:38:25;;;;;;;2.40;2.20;;;17.10;99.90;;;;;;5033494;28;20249;-84
2021/06/22 07:40:52;;;;;;;6.77;2.77;;;16.90;99.90;;;;;;5037415;28;20274;-85
2021/06/22 07:43:18;;;;;;;2.97;2.50;;;16.90;99.90;;;;;;5034384;28;20214;-88
2021/06/22 07:45:44;;;;;;;5.27;2.70;;;16.90;99.90;;;;;;5033143;28;20230;-86
2021/06/22 07:48:11;;;;;;;4.63;2.57;;;16.60;99.90;;;;;;5018073;28;20244;-83
2021/06/22 07:50:37;;;;;;;2.70;2.23;;;16.80;99.90;;;;;;5034388;28;20249;-85
2021/06/22 07:53:04;;;;;;;3.63;2.63;;;16.60;99.90;;;;;;5032957;28;20178;-84
2021/06/22 07:55:31;;;;;;;7.80;2.27;;;17.30;99.90;;;;;;5034923;28;20200;-86
2021/06/22 07:57:57;;;;;;;3.80;2.77;;;17.80;99.90;;;;;;5033867;28;20307;-84
2021/06/22 08:02:54;;;;;;;8.10;2.80;;;18.80;99.90;;;;;;5036869;28;20218;-87
2021/06/22 08:05:20;;;;;;;5.67;2.13;;;19.50;99.90;;;;;;5036545;28;20220;-84
2021/06/22 08:07:46;;;;;;;7.57;2.40;;;20.20;99.90;;;;;;5035562;28;20210;-83
2021/06/22 08:10:12;;;;;;;8.50;2.87;;;21.30;99.90;;;;;;5032142;28;20730;-85
2021/06/22 08:12:38;;;;;;;5.00;2.53;;;21.80;99.90;;;;;;5033620;28;21247;-85
2021/06/22 08:15:05;;;;;;;7.00;2.53;;;21.40;99.90;;;;;;5035294;28;20222;-88
2021/06/22 08:17:31;;;;;;;4.33;2.50;;;21.50;99.90;;;;;;5018991;28;20241;-85
2021/06/22 08:19:56;;;;;;;7.13;2.60;;;21.50;99.90;;;;;;5018496;28;20190;-86
2021/06/22 08:22:23;;;;;;;8.63;2.47;;;22.30;99.90;;;;;;5017616;28;20641;-86
2021/06/22 08:24:49;;;;;;;4.07;2.43;;;21.60;99.90;;;;;;5016824;28;20271;-86
2021/06/22 08:27:14;;;;;;;5.75;2.38;;;20.10;99.90;;;;;;5031730;28;20233;-87
2021/06/22 08:29:40;;;;;;;4.80;2.47;;;20.00;99.90;;;;;;5029087;28;20215;-86
2021/06/22 08:32:06;;;;;;;4.63;2.67;;;21.00;99.90;;;;;;5014264;28;20703;-84
2021/06/22 08:34:32;;;;;;;4.80;2.40;;;21.80;99.90;;;;;;5012674;28;20325;-86
2021/06/22 08:36:58;;;;;;;6.03;3.00;;;20.70;99.90;;;;;;5030450;28;21065;-84
2021/06/22 08:39:23;;;;;;;4.60;2.17;;;18.90;99.90;;;;;;5027819;28;20288;-86
2021/06/22 08:41:52;;;;;;;5.40;2.50;;;20.00;99.90;;;;;;4996278;28;20714;-85
2021/06/22 08:44:19;;;;;;;4.70;2.53;;;19.40;99.90;;;;;;5030900;28;20237;-84
2021/06/22 08:46:46;;;;;;;7.83;2.30;;;21.00;99.90;;;;;;5030306;28;20802;-86
2021/06/22 08:49:13;;;;;;;5.73;2.37;;;20.70;99.90;;;;;;5015342;28;20221;-84
2021/06/22 08:51:41;;;;;;;4.43;2.53;;;20.50;99.90;;;;;;5029465;28;20275;-85
2021/06/22 08:54:08;;;;;;;4.43;2.53;;;21.00;99.90;;;;;;5030850;28;20291;-84
2021/06/22 08:56:34;;;;;;;4.40;2.30;;;21.70;99.90;;;;;;5032098;28;20268;-87
2021/06/22 08:59:00;;;;;;;4.40;2.43;;;20.60;99.90;;;;;;5013151;28;20206;-83
2021/06/22 09:01:26;;;;;;;8.63;2.60;;;21.00;99.90;;;;;;5029192;28;20195;-83
2021/06/22 09:03:52;;;;;;;2.80;2.17;;;20.80;99.90;;;;;;5031482;28;20237;-86
2021/06/22 09:06:17;;;;;;;6.03;2.47;;;19.90;99.90;;;;;;5029113;28;20355;-84
2021/06/22 09:08:51;;;;;;;4.97;2.27;;;19.70;99.90;;;;;;5013629;28;20689;-86
2021/06/22 09:11:18;;;;;;;2.77;2.33;;;20.20;99.90;;;;;;5029282;28;20186;-84
2021/06/22 09:13:58;;;;;;;4.90;2.37;;;20.80;99.90;;;;;;5030776;28;20174;-85
2021/06/22 09:16:24;;;;;;;2.90;2.60;;;20.10;99.90;;;;;;5048483;28;20225;-84
2021/06/22 09:18:50;;;;;;;4.10;2.47;;;18.50;99.90;;;;;;5021523;28;21000;-88
2021/06/22 09:21:21;;;;;;;3.60;2.10;;;17.80;99.90;;;;;;5012504;28;20215;-84
2021/06/22 09:23:48;;;;;;;3.77;2.20;;;18.10;99.90;;;;;;5031188;28;20222;-84
2021/06/22 09:26:25;;;;;;;7.40;2.93;;;18.90;99.90;;;;;;5028478;28;20195;-82
2021/06/22 09:28:53;;;;;;;4.30;2.67;;;19.30;99.90;;;;;;5031514;28;20182;-84
2021/06/22 09:31:21;;;;;;;4.90;2.23;;;19.00;99.90;;;;;;5029672;28;20222;-85
2021/06/22 09:33:51;;;;;;;4.53;2.47;;;19.90;99.90;;;;;;5033077;28;20268;-84
2021/06/22 09:36:25;;;;;;;4.27;2.27;;;21.30;99.90;;;;;;5013788;28;20313;-82
2021/06/22 09:38:54;;;;;;;3.03;2.27;;;22.20;99.90;;;;;;5030659;28;20247;-86
2021/06/22 09:41:26;;;;;;;6.13;2.50;;;22.50;99.90;;;;;;5027647;28;20276;-86
2021/06/22 09:44:07;;;;;;;4.20;2.50;;;22.50;99.90;;;;;;5033380;28;20734;-84
2021/06/22 09:46:55;;;;;;;3.80;2.80;;;22.40;99.90;;;;;;5032169;28;20229;-84
2021/06/22 09:49:28;;;;;;;4.97;3.20;;;21.90;99.90;;;;;;5031829;28;20301;-83
2021/06/22 09:52:01;;;;;;;4.43;2.72;;;21.70;99.90;;;;;;5030585;28;20242;-85
2021/06/22 09:54:29;;;;;;;3.33;1.95;;;23.00;99.90;;;;;;5029479;28;20231;-86
2021/06/22 09:57:02;;;;;;;4.97;3.38;;;20.60;99.90;;;;;;5031584;28;20605;-86
2021/06/22 09:59:51;;;;;;;3.67;2.43;;;18.50;99.90;;;;;;5032613;28;20317;-87
2021/06/22 10:02:22;;;;;;;4.27;3.40;;;18.70;99.90;;;;;;5033038;28;20201;-84
2021/06/22 10:04:58;;;;;;;5.73;3.07;;;20.30;99.90;;;;;;5033664;28;20645;-86
2021/06/22 10:07:26;;;;;;;4.50;2.93;;;21.40;99.90;;;;;;5033133;28;20297;-86
2021/06/22 10:10:02;;;;;;;4.50;2.97;;;20.90;99.90;;;;;;5031349;28;20226;-84
2021/06/22 10:12:31;;;;;;;4.07;3.00;;;20.10;99.90;;;;;;5033559;28;20226;-84
2021/06/22 10:15:03;;;;;;;6.57;2.60;;;19.00;99.90;;;;;;5031118;28;20230;-83
2021/06/22 10:17:30;;;;;;;4.63;2.17;;;17.90;99.90;;;;;;5035381;28;20233;-84
2021/06/22 10:19:58;;;;;;;7.47;2.90;;;17.70;99.90;;;;;;5015660;28;20189;-85
2021/06/22 10:22:27;;;;;;;4.03;2.70;;;18.40;99.90;;;;;;5030219;28;20222;-82
2021/06/22 10:24:56;;;;;;;4.53;3.03;;;19.80;99.90;;;;;;5032148;28;20230;-85
2021/06/22 10:27:22;;;;;;;4.67;2.40;;;21.10;99.90;;;;;;5014439;28;21014;-85
2021/06/22 10:29:52;;;;;;;4.10;2.47;;;20.70;99.90;;;;;;5031140;28;20215;-86
2021/06/22 10:32:19;;;;;;;3.77;2.37;;;21.00;99.90;;;;;;5030481;28;20522;-85
2021/06/22 10:35:10;;;;;;;3.80;1.97;;;21.50;99.90;;;;;;5030884;28;21085;-86
2021/06/22 10:37:40;;;;;;;5.07;2.17;;;19.30;99.90;;;;;;5032257;28;20221;-86
2021/06/22 10:40:26;;;;;;;2.17;1.67;;;17.80;99.90;;;;;;5031161;28;20242;-84
2021/06/22 10:43:01;;;;;;;4.63;2.13;;;17.60;99.90;;;;;;5030100;28;20257;-87
2021/06/22 10:45:26;;;;;;;13.10;2.37;;;17.70;99.90;;;;;;5032055;28;20628;-86
2021/06/22 10:47:56;;;;;;;4.30;2.20;;;18.20;99.90;;;;;;5029693;28;20233;-86
2021/06/22 10:50:22;;;;;;;2.23;2.03;;;18.30;99.90;;;;;;5030225;28;20638;-85
2021/06/22 10:52:50;;;;;;;6.23;2.40;;;18.30;99.90;;;;;;5030108;28;20660;-86
2021/06/22 10:55:45;;;;;;;3.30;2.53;;;17.60;99.90;;;;;;5033227;28;20234;-88
2021/06/22 10:58:13;;;;;;;2.30;1.67;;;17.10;99.90;;;;;;5031509;28;20234;-86
2021/06/22 11:00:39;;;;;;;8.73;2.10;;;17.70;99.90;;;;;;5030906;28;20218;-87
2021/06/22 11:03:29;;;;;;;7.87;2.63;;;18.70;99.90;;;;;;5031660;28;20237;-84
2021/06/22 11:06:10;;;;;;;2.80;1.93;;;18.90;99.90;;;;;;5030400;28;20214;-88
2021/06/22 11:08:41;;;;;;;2.97;1.97;;;19.30;99.90;;;;;;5031633;28;20230;-86
2021/06/22 11:11:07;;;;;;;5.60;2.17;;;19.80;99.90;;;;;;5028784;28;20221;-86
2021/06/22 11:13:36;;;;;;;2.80;2.23;;;19.10;99.90;;;;;;5029213;28;20215;-88
2021/06/22 11:16:12;;;;;;;2.77;1.57;;;18.50;99.90;;;;;;5013787;28;20226;-89
2021/06/22 11:19:05;;;;;;;6.20;2.33;;;17.90;99.90;;;;;;5014588;28;20236;-86
2021/06/22 11:21:33;;;;;;;8.27;2.00;;;17.60;99.90;;;;;;5026903;28;20234;-87
2021/06/22 11:24:05;;;;;;;7.13;1.90;;;17.20;99.90;;;;;;5030803;28;20672;-89
2021/06/22 11:26:49;;;;;;;5.20;3.17;;;18.00;99.90;;;;;;5029951;28;20332;-86
2021/06/22 11:29:20;;;;;;;5.60;2.30;;;18.80;99.90;;;;;;5029287;28;20221;-86
2021/06/22 11:31:53;;;;;;;1.80;1.70;;;19.20;99.90;;;;;;5030791;28;20182;-84
2021/06/22 11:34:24;;;;;;;3.83;2.00;;;18.80;99.90;;;;;;5045388;28;20214;-85
2021/06/22 11:37:06;;;;;;;4.27;2.27;;;19.10;99.90;;;;;;5043984;28;20213;-85
2021/06/22 11:39:32;;;;;;;5.13;1.97;;;18.60;99.90;;;;;;5031542;28;20608;-85
2021/06/22 11:42:16;;;;;;;5.37;2.17;;;17.80;99.90;;;;;;5032600;28;20222;-85
2021/06/22 11:44:46;;;;;;;3.00;1.80;;;17.60;99.90;;;;;;5046104;28;20224;-83
2021/06/22 11:47:24;;;;;;;2.93;2.17;;;18.30;99.90;;;;;;5030313;28;20200;-83
2021/06/22 11:49:50;;;;;;;3.30;1.50;;;18.00;99.90;;;;;;5031215;28;20218;-86
2021/06/22 11:52:19;;;;;;;6.27;2.33;;;17.90;99.90;;;;;;5031729;28;20819;-84
2021/06/22 11:54:48;;;;;;;1.90;1.70;;;18.30;99.90;;;;;;5031610;28;20729;-84
2021/06/22 11:57:18;;;;;;;3.97;1.87;;;17.80;99.90;;;;;;5030317;28;20238;-83
2021/06/22 11:59:44;;;;;;;4.27;1.90;;;17.40;99.90;;;;;;5032401;28;20217;-83
2021/06/22 12:02:10;;;;;;;4.00;2.17;;;17.40;99.90;;;;;;5027405;28;20228;-83
2021/06/22 12:04:36;;;;;;;3.23;1.50;;;17.80;99.90;;;;;;5028651;28;20768;-87
2021/06/22 12:07:02;;;;;;;2.40;1.60;;;17.60;99.90;;;;;;5031495;28;20253;-85
2021/06/22 12:09:28;;;;;;;1.33;1.20;;;17.60;99.90;;;;;;5028938;28;20279;-87
2021/06/22 12:11:57;;;;;;;3.60;1.83;;;17.00;99.90;;;;;;5014129;28;20739;-83
2021/06/22 12:14:23;;;;;;;3.13;1.13;;;17.40;99.90;;;;;;5033188;28;20265;-85
2021/06/22 12:16:49;;;;;;;2.23;1.00;;;17.80;99.90;;;;;;5012220;28;20293;-83
2021/06/22 12:19:18;;;;;;;0.93;0.70;;;17.50;99.90;;;;;;5028230;28;20217;-86
2021/06/22 12:21:53;;;;;;;3.17;1.27;;;17.30;99.90;;;;;;5029501;28;20317;-84
2021/06/22 12:24:22;;;;;;;1.30;1.00;;;17.40;99.90;;;;;;5033388;28;20672;-85
2021/06/22 12:26:51;;;;;;;0.80;0.80;;;17.60;99.90;;;;;;5032113;28;20263;-83
2021/06/22 12:29:28;;;;;;;3.27;1.30;;;17.40;99.90;;;;;;5049179;28;20205;-82
2021/06/22 12:31:58;;;;;;;2.73;1.00;;;17.50;99.90;;;;;;5032017;28;20182;-84
2021/06/22 12:34:28;;;;;;;5.83;0.90;;;17.40;99.90;;;;;;5033706;28;20584;-83
2021/06/22 12:36:56;;;;;;;3.70;0.97;;;17.40;99.90;;;;;;5033733;28;20218;-83
2021/06/22 12:39:23;;;;;;;4.27;1.07;;;17.80;99.90;;;;;;5031292;28;20728;-82
2021/06/22 12:41:49;;;;;;;2.30;1.30;;;17.70;99.90;;;;;;5017177;28;20253;-84
2021/06/22 12:44:25;;;;;;;0.93;0.87;;;17.90;99.90;;;;;;5013985;28;20191;-83
2021/06/22 12:46:51;;;;;;;1.40;0.63;;;17.40;99.90;;;;;;5031709;28;20202;-82
2021/06/22 12:49:24;;;;;;;1.03;1.03;;;17.10;99.90;;;;;;5032655;28;21177;-82
2021/06/22 12:51:55;;;;;;;2.77;1.13;;;17.10;99.90;;;;;;5030635;28;20208;-81